Albion, NY (14411)

10:32 PM EDT on August 29, 2015 (GMT -0400)
Orleans Poverty Hill Farms | | Change Station
CLOSE
Current Station
Personal Weather Station
Location: Albion, NY
Elevation: 597 ft
Nearby Weather Stations

Elev 597 ft 43.22 °N, 78.24 °W | Updated 2 minutes ago

Overcast
Overcast
67.9 °F
Feels Like 67.9 °F
N
5.0
Wind Variable Wind from SW
Gusts 5.0 mph

Today
High -- | Low -- °F
--% Chance of Precip.
Yesterday
High -- | Low -- °F
Precip. -- in
6:33 AM 7:53 PM
Full, 100% visible
Pressure 30.10 in
Visibility 10.0 miles
Clouds Mostly Cloudy 10000 ft
Dew Point 64 °F
Humidity 89%
Rainfall 0.00 in
Snow Depth Not available.
UV 0 out of 12
Pollen 9.70 out of 12
Air Quality Not available.
Flu Activity Not available.
METAR KROC 300154Z 11003KT 10SM BKN100 21/16 A3010 RMK AO2 SLP193 T02060156
Pressure 30.10 in
Visibility 10.0 miles
Clouds Mostly Cloudy 10000 ft
Dew Point 64 °F
Humidity 89%
Rainfall 0.00 in
Snow Depth Not available.
UV 0 out of 12
Pollen 9.70 out of 12
Air Quality Not available.
Flu Activity Not available.
METAR KROC 300154Z 11003KT 10SM BKN100 21/16 A3010 RMK AO2 SLP193 T02060156

10-Day Weather Forecast

×

Almanac

Astronomy

Aug. 29, 2015 Rise Set
Actual Time
Civil Twilight
Nautical Twilight
Astronomical Twilight
Moon
Length of Visible Light
Length of Day
Tomorrow will be .
, % of the Moon is Illuminated

Today's Extremes

State Highs State Lows

Community

WunderPhotos

Upload Photos

1,850,852 photos uploaded!

WunderBlogs® & News

Nearby

Air Quality

  Air Quality AQ Index Pollutant
Not available.

Snow Depth

Station Depth Elevation

Earthquake Activity

City Distance Mag. Time & Date
Minimum magnitude displayed is 2.5.

Coastal Water Temperatures

Place Temperature

Stations

Nearby Weather Stations

Station Location Temp. Windchill Dew Point Humidity Wind Precip. Elev Updated Type